TimeCDT,TemperatureF,Dew PointF,Humidity,Sea Level PressureIn,VisibilityMPH,Wind Direction,Wind SpeedMPH,Gust SpeedMPH,PrecipitationIn,Events,Conditions,WindDirDegrees,DateUTC
12:52 AM,55.0,39.0,55,30.14,10.0,Calm,Calm,-,N/A,,Overcast,0,2012-10-11 05:52:00
1:52 AM,57.0,39.9,53,30.12,10.0,Calm,Calm,-,N/A,,Overcast,0,2012-10-11 06:52:00
2:52 AM,57.0,43.0,59,30.12,10.0,Calm,Calm,-,N/A,,Overcast,0,2012-10-11 07:52:00
3:20 AM,59.0,41.0,51,30.12,10.0,SSE,4.6,-,N/A,,Overcast,150,2012-10-11 08:20:00
3:29 AM,59.0,42.8,55,30.12,10.0,Calm,Calm,-,N/A,,Overcast,0,2012-10-11 08:29:00
3:36 AM,59.0,42.8,55,30.12,10.0,SE,3.5,-,N/A,,Overcast,140,2012-10-11 08:36:00
3:52 AM,59.0,42.1,53,30.11,10.0,SE,3.5,-,N/A,,Overcast,140,2012-10-11 08:52:00
4:30 AM,59.0,42.8,55,30.11,10.0,SE,4.6,-,N/A,,Overcast,140,2012-10-11 09:30:00
4:52 AM,60.1,42.1,51,30.10,10.0,SE,4.6,-,N/A,,Overcast,140,2012-10-11 09:52:00
5:52 AM,60.1,43.0,53,30.11,10.0,SSE,6.9,-,N/A,,Overcast,150,2012-10-11 10:52:00
6:24 AM,60.8,42.8,52,30.11,10.0,SSE,8.1,-,N/A,,Overcast,150,2012-10-11 11:24:00
6:52 AM,60.1,44.1,55,30.11,10.0,SSE,6.9,-,N/A,,Overcast,150,2012-10-11 11:52:00
7:52 AM,60.1,44.1,55,30.12,10.0,SSE,8.1,-,N/A,,Overcast,160,2012-10-11 12:52:00
10:52 AM,66.0,50.0,56,30.13,10.0,South,12.7,-,N/A,,Overcast,180,2012-10-11 15:52:00
11:52 AM,69.1,53.1,57,30.11,9.0,South,13.8,-,N/A,,Mostly Cloudy,180,2012-10-11 16:52:00
12:21 PM,71.6,55.4,57,30.10,8.0,SSW,17.3,-,N/A,,Mostly Cloudy,200,2012-10-11 17:21:00
12:52 PM,73.9,55.9,53,30.08,10.0,South,15.0,-,N/A,,Partly Cloudy,180,2012-10-11 17:52:00
1:17 PM,73.4,57.2,57,30.07,10.0,South,13.8,-,N/A,,Mostly Cloudy,180,2012-10-11 18:17:00
1:52 PM,73.9,57.9,57,30.04,10.0,South,12.7,20.7,N/A,,Overcast,180,2012-10-11 18:52:00
2:52 PM,75.0,59.0,57,30.02,10.0,South,15.0,20.7,N/A,,Overcast,170,2012-10-11 19:52:00
3:52 PM,78.1,61.0,56,30.01,10.0,South,15.0,-,N/A,,Mostly Cloudy,170,2012-10-11 20:52:00
4:52 PM,77.0,63.0,62,30.00,10.0,South,13.8,-,N/A,,Mostly Cloudy,180,2012-10-11 21:52:00
6:52 PM,75.0,64.0,69,30.01,10.0,South,12.7,-,N/A,,Overcast,190,2012-10-11 23:52:00
11:52 PM,71.1,63.0,75,30.10,10.0,South,6.9,-,N/A,,Overcast,170,2012-10-12 04:52:00